createdAt,value
2017-11-08T00:02:03.609Z,12.40
2017-11-08T00:04:32.381Z,12.40
2017-11-08T00:07:01.174Z,12.50
2017-11-08T00:09:30.405Z,12.50
2017-11-08T00:11:58.898Z,12.50
2017-11-08T00:14:26.895Z,12.50
2017-11-08T00:16:55.028Z,12.50
2017-11-08T00:19:22.984Z,12.40
2017-11-08T00:21:53.712Z,12.50
2017-11-08T00:24:34.171Z,12.50
2017-11-08T00:27:02.999Z,12.50
2017-11-08T00:29:30.986Z,12.50
2017-11-08T00:31:58.971Z,12.50
2017-11-08T00:34:26.882Z,12.50
2017-11-08T00:36:54.877Z,12.50
2017-11-08T00:39:22.935Z,12.50
2017-11-08T00:41:50.970Z,12.50
2017-11-08T00:44:19.766Z,12.50
2017-11-08T00:46:48.587Z,12.50
2017-11-08T00:49:16.616Z,12.50
2017-11-08T00:51:45.414Z,12.50
2017-11-08T00:54:14.171Z,12.50
2017-11-08T00:56:42.143Z,12.50
2017-11-08T00:59:10.142Z,12.50
2017-11-08T01:01:38.979Z,12.50
2017-11-08T01:04:06.945Z,12.50
2017-11-08T01:06:34.838Z,12.50
2017-11-08T01:09:02.716Z,12.50
2017-11-08T01:11:30.642Z,12.60
2017-11-08T01:13:58.488Z,12.50
2017-11-08T01:16:26.484Z,12.50
2017-11-08T01:18:54.474Z,12.60
2017-11-08T01:21:22.341Z,12.60
2017-11-08T01:23:50.188Z,12.60
2017-11-08T01:26:18.120Z,12.60
2017-11-08T01:28:46.843Z,12.60
2017-11-08T01:31:14.777Z,12.60
2017-11-08T01:33:45.256Z,12.60
2017-11-08T01:36:13.188Z,12.60
2017-11-08T01:38:42.798Z,12.60
2017-11-08T01:41:16.255Z,12.60
2017-11-08T01:43:44.200Z,12.60
2017-11-08T01:46:17.000Z,12.60
2017-11-08T01:48:44.960Z,12.60
2017-11-08T01:51:13.726Z,12.60
2017-11-08T01:53:41.583Z,12.50
2017-11-08T01:56:09.500Z,12.50
2017-11-08T01:58:37.466Z,12.50
2017-11-08T02:01:05.384Z,12.50
2017-11-08T02:03:33.262Z,12.50
2017-11-08T02:06:01.172Z,12.50
2017-11-08T02:08:29.135Z,12.50
2017-11-08T02:10:57.055Z,12.50
2017-11-08T02:13:24.915Z,12.50
2017-11-08T02:15:52.810Z,12.50
2017-11-08T02:18:22.494Z,12.50
2017-11-08T02:20:50.483Z,12.50
2017-11-08T02:23:18.472Z,12.50
2017-11-08T02:25:46.470Z,12.50
2017-11-08T02:28:18.076Z,12.50
2017-11-08T02:30:46.103Z,12.50
2017-11-08T02:33:14.834Z,12.50
2017-11-08T02:35:43.009Z,12.50
2017-11-08T02:38:10.907Z,12.50
2017-11-08T02:40:38.787Z,12.50
2017-11-08T02:43:09.619Z,12.60
2017-11-08T02:45:52.061Z,12.60
2017-11-08T02:48:19.964Z,12.60
2017-11-08T02:50:47.833Z,12.60
2017-11-08T02:53:21.711Z,12.60
2017-11-08T02:55:49.652Z,12.60
2017-11-08T02:58:18.300Z,12.60
2017-11-08T03:00:47.129Z,12.60
2017-11-08T03:03:15.735Z,12.60
2017-11-08T03:05:43.636Z,12.60
2017-11-08T03:08:11.631Z,12.60
2017-11-08T03:10:39.536Z,12.60
2017-11-08T03:13:07.372Z,12.60
2017-11-08T03:15:35.307Z,12.60
2017-11-08T03:18:03.241Z,12.60
2017-11-08T03:20:31.196Z,12.60
2017-11-08T03:23:00.369Z,12.50
2017-11-08T03:25:28.308Z,12.50
2017-11-08T03:27:56.143Z,12.50
2017-11-08T03:30:24.025Z,12.50
2017-11-08T03:32:51.956Z,12.60
2017-11-08T03:35:20.593Z,12.60
2017-11-08T03:37:48.507Z,12.60
2017-11-08T03:40:17.159Z,12.60
2017-11-08T03:42:45.065Z,12.60
2017-11-08T03:45:13.750Z,12.60
2017-11-08T03:47:42.370Z,12.60
2017-11-08T03:50:10.349Z,12.60
2017-11-08T03:52:38.243Z,12.60
2017-11-08T03:55:06.130Z,12.60
2017-11-08T03:57:34.064Z,12.60
2017-11-08T04:00:01.951Z,12.60
2017-11-08T04:02:29.792Z,12.60
2017-11-08T04:04:57.768Z,12.60
2017-11-08T04:07:25.971Z,12.60
2017-11-08T04:09:54.679Z,12.60
2017-11-08T04:12:23.286Z,12.60
2017-11-08T04:14:51.180Z,12.60
2017-11-08T04:17:19.169Z,12.60
2017-11-08T04:19:47.159Z,12.60
2017-11-08T04:22:15.816Z,12.60
2017-11-08T04:24:43.756Z,12.60
2017-11-08T04:27:11.704Z,12.60
2017-11-08T04:29:39.662Z,12.60
2017-11-08T04:32:08.360Z,12.60
2017-11-08T04:34:36.300Z,12.60
2017-11-08T04:37:04.185Z,12.60
2017-11-08T04:39:32.803Z,12.60
2017-11-08T04:42:00.671Z,12.60
2017-11-08T04:44:28.621Z,12.60
2017-11-08T04:46:56.544Z,12.70
2017-11-08T04:49:24.423Z,12.60
2017-11-08T04:51:52.320Z,12.60
2017-11-08T04:54:20.309Z,12.60
2017-11-08T04:56:48.210Z,12.70
2017-11-08T04:59:16.139Z,12.70
2017-11-08T05:01:44.036Z,12.70
2017-11-08T05:04:11.929Z,12.70
2017-11-08T05:06:40.639Z,12.70
2017-11-08T05:09:08.533Z,12.70
2017-11-08T05:11:36.383Z,12.70
2017-11-08T05:14:04.215Z,12.70
2017-11-08T05:16:32.179Z,12.70
2017-11-08T05:19:00.127Z,12.70
2017-11-08T05:21:27.977Z,12.70
2017-11-08T05:23:55.849Z,12.70
2017-11-08T05:26:23.785Z,12.70
2017-11-08T05:28:51.724Z,12.70
2017-11-08T05:31:19.695Z,12.70
2017-11-08T05:33:48.328Z,12.70
2017-11-08T05:36:16.209Z,12.70
2017-11-08T05:38:44.155Z,12.70
2017-11-08T05:41:12.088Z,12.70
2017-11-08T05:43:40.737Z,12.70
2017-11-08T05:46:08.615Z,12.70
2017-11-08T05:48:36.486Z,12.70
2017-11-08T05:51:04.395Z,12.70
2017-11-08T05:53:32.416Z,12.70
2017-11-08T05:56:00.290Z,12.70
2017-11-08T05:58:28.186Z,12.70
2017-11-08T06:00:56.896Z,12.70
2017-11-08T06:03:24.780Z,12.70
2017-11-08T06:05:52.707Z,12.70
2017-11-08T06:08:21.393Z,12.70
2017-11-08T06:10:50.037Z,12.70
2017-11-08T06:13:17.884Z,12.70
2017-11-08T06:15:45.743Z,12.70
2017-11-08T06:18:13.680Z,12.80
2017-11-08T06:20:42.372Z,12.70
2017-11-08T06:23:11.060Z,12.70
2017-11-08T06:25:39.674Z,12.70
2017-11-08T06:28:07.526Z,12.70
2017-11-08T06:30:36.266Z,12.80
2017-11-08T06:33:04.485Z,12.80
2017-11-08T06:35:32.984Z,12.80
2017-11-08T06:38:01.718Z,12.70
2017-11-08T06:40:29.619Z,12.70
2017-11-08T06:42:57.526Z,12.70
2017-11-08T06:45:25.468Z,12.70
2017-11-08T06:47:53.352Z,12.70
2017-11-08T06:50:21.279Z,12.70
2017-11-08T06:52:50.070Z,12.80
2017-11-08T06:55:18.740Z,12.80
2017-11-08T06:57:46.679Z,12.80
2017-11-08T07:00:14.596Z,12.80
2017-11-08T07:02:43.255Z,12.80
2017-11-08T07:05:11.167Z,12.80
2017-11-08T07:07:39.389Z,12.90
2017-11-08T07:10:07.266Z,12.80
2017-11-08T07:12:35.149Z,12.80
2017-11-08T07:15:03.905Z,12.90
2017-11-08T07:17:31.791Z,12.90
2017-11-08T07:19:59.743Z,12.90
2017-11-08T07:22:28.242Z,12.90
2017-11-08T07:24:57.071Z,12.90
2017-11-08T07:27:25.744Z,13.00
2017-11-08T07:29:53.727Z,13.00
2017-11-08T07:32:21.652Z,13.00
2017-11-08T07:34:49.492Z,13.00
2017-11-08T07:37:17.323Z,13.00
2017-11-08T07:39:45.292Z,13.00
2017-11-08T07:42:13.791Z,13.00
2017-11-08T07:44:41.665Z,13.00
2017-11-08T07:47:09.524Z,13.00
2017-11-08T07:49:37.420Z,13.00
2017-11-08T07:52:07.202Z,13.00
2017-11-08T07:54:35.094Z,13.10
2017-11-08T07:57:02.948Z,13.10
2017-11-08T07:59:36.508Z,13.10
2017-11-08T08:02:05.120Z,13.10
2017-11-08T08:04:32.977Z,13.10
2017-11-08T08:07:00.838Z,13.10
2017-11-08T08:09:34.268Z,13.10
2017-11-08T08:12:02.198Z,13.10
2017-11-08T08:14:31.325Z,13.10
2017-11-08T08:16:59.197Z,13.10
2017-11-08T08:19:27.302Z,13.10
2017-11-08T08:21:55.157Z,13.10
2017-11-08T08:24:23.885Z,13.20
2017-11-08T08:26:53.048Z,13.20
2017-11-08T08:29:21.941Z,13.20
2017-11-08T08:31:50.686Z,13.20
2017-11-08T08:34:19.840Z,13.20
2017-11-08T08:36:48.310Z,13.20
2017-11-08T08:39:16.796Z,13.30
2017-11-08T08:41:44.749Z,13.30
2017-11-08T08:44:12.700Z,13.30
2017-11-08T08:46:40.595Z,13.30
2017-11-08T08:49:08.469Z,13.40
2017-11-08T08:51:36.359Z,13.40
2017-11-08T08:54:05.107Z,13.50
2017-11-08T08:56:33.007Z,13.50
2017-11-08T08:59:01.660Z,13.50
2017-11-08T09:01:29.531Z,13.50
2017-11-08T09:03:57.407Z,13.60
2017-11-08T09:06:25.610Z,13.60
2017-11-08T09:08:53.505Z,13.60
2017-11-08T09:11:21.449Z,13.70
2017-11-08T09:13:50.169Z,13.70
2017-11-08T09:16:18.101Z,13.70
2017-11-08T09:18:52.563Z,13.80
2017-11-08T09:21:20.630Z,13.80
2017-11-08T09:23:48.634Z,13.90
2017-11-08T09:26:16.645Z,13.90
2017-11-08T09:28:44.605Z,13.90
2017-11-08T09:31:18.275Z,14.00
2017-11-08T09:33:46.405Z,14.00
2017-11-08T09:36:15.171Z,14.00
2017-11-08T09:38:43.071Z,14.10
2017-11-08T09:41:11.056Z,14.10
2017-11-08T09:43:38.929Z,14.10
2017-11-08T09:46:06.868Z,14.10
2017-11-08T09:48:34.817Z,14.20
2017-11-08T09:51:02.808Z,14.20
2017-11-08T09:53:30.777Z,14.20
2017-11-08T09:55:58.757Z,14.20
2017-11-08T09:58:26.696Z,14.20
2017-11-08T10:00:57.455Z,14.30
2017-11-08T10:03:25.404Z,14.30
2017-11-08T10:05:53.265Z,14.40
2017-11-08T10:08:21.196Z,14.40
2017-11-08T10:10:49.177Z,14.40
2017-11-08T10:13:18.771Z,14.40
2017-11-08T10:15:47.557Z,14.40
2017-11-08T10:18:15.709Z,14.40
2017-11-08T10:20:44.569Z,14.40
2017-11-08T10:23:13.009Z,14.40
2017-11-08T10:25:42.002Z,14.50
2017-11-08T10:28:09.888Z,14.50
2017-11-08T10:30:38.563Z,14.50
2017-11-08T10:33:06.457Z,14.50
2017-11-08T10:35:35.229Z,14.60
2017-11-08T10:38:04.008Z,14.60
2017-11-08T10:40:32.759Z,14.70
2017-11-08T10:43:00.710Z,14.60
2017-11-08T10:45:29.045Z,14.70
2017-11-08T10:47:57.487Z,14.70
2017-11-08T10:50:25.989Z,14.70
2017-11-08T10:52:55.498Z,14.80
2017-11-08T10:55:23.500Z,14.80
2017-11-08T10:57:52.103Z,14.80
2017-11-08T11:00:25.651Z,14.90
2017-11-08T11:02:58.510Z,14.90
2017-11-08T11:05:26.517Z,14.90
2017-11-08T11:07:54.511Z,15.00
2017-11-08T11:10:22.559Z,15.00
2017-11-08T11:12:50.491Z,15.10
2017-11-08T11:15:18.481Z,15.10
2017-11-08T11:17:49.350Z,15.10
2017-11-08T11:20:19.368Z,15.10
2017-11-08T11:22:47.785Z,15.10
2017-11-08T11:25:17.204Z,15.20
2017-11-08T11:27:45.207Z,15.30
2017-11-08T11:30:13.196Z,15.30
2017-11-08T11:32:44.007Z,15.40
2017-11-08T11:35:12.072Z,15.40
2017-11-08T11:37:45.678Z,15.40
2017-11-08T11:40:14.972Z,15.50
2017-11-08T11:42:43.025Z,15.40
2017-11-08T11:45:11.803Z,15.50
2017-11-08T11:47:39.912Z,15.50
2017-11-08T11:50:08.732Z,15.60
2017-11-08T11:52:36.763Z,15.60
2017-11-08T11:55:05.593Z,15.60
2017-11-08T11:57:33.603Z,15.60
2017-11-08T12:00:03.517Z,15.70
2017-11-08T12:02:31.576Z,15.70
2017-11-08T12:04:59.699Z,15.80
2017-11-08T12:07:28.475Z,15.80
2017-11-08T12:09:57.238Z,15.90
2017-11-08T12:12:26.283Z,15.80
2017-11-08T12:14:54.305Z,15.90
2017-11-08T12:17:22.261Z,15.90
2017-11-08T12:19:51.068Z,15.90
2017-11-08T12:22:19.549Z,15.90
2017-11-08T12:24:47.633Z,15.90
2017-11-08T12:27:16.508Z,16.00
2017-11-08T12:29:45.346Z,16.00
2017-11-08T12:32:13.415Z,16.00
2017-11-08T12:34:41.779Z,16.10
2017-11-08T12:37:10.123Z,16.10
2017-11-08T12:39:38.644Z,16.10
2017-11-08T12:42:12.800Z,16.10
2017-11-08T12:44:46.445Z,16.10
2017-11-08T12:47:15.210Z,16.10
2017-11-08T12:49:43.239Z,16.10
2017-11-08T12:52:11.865Z,16.20
2017-11-08T12:54:40.278Z,16.20
2017-11-08T12:57:10.053Z,16.20
2017-11-08T12:59:39.319Z,16.20
2017-11-08T13:02:08.050Z,16.10
2017-11-08T13:04:36.599Z,16.10
2017-11-08T13:07:11.165Z,16.10
2017-11-08T13:09:39.376Z,16.10
2017-11-08T13:12:10.507Z,16.10
2017-11-08T13:14:39.763Z,16.20
2017-11-08T13:17:08.111Z,16.20
2017-11-08T13:19:36.477Z,16.20
2017-11-08T13:22:05.643Z,16.30
2017-11-08T13:24:34.042Z,16.20
2017-11-08T13:27:03.203Z,16.20
2017-11-08T13:29:32.309Z,16.20
2017-11-08T13:32:00.451Z,16.30
2017-11-08T13:34:28.656Z,16.30
2017-11-08T13:36:56.895Z,16.30
2017-11-08T13:39:25.127Z,16.30
2017-11-08T13:41:54.518Z,16.30
2017-11-08T13:44:22.835Z,16.30
2017-11-08T13:46:51.655Z,16.30
2017-11-08T13:49:19.969Z,16.40
2017-11-08T13:51:48.260Z,16.40
2017-11-08T13:54:17.360Z,16.40
2017-11-08T13:56:46.376Z,16.40
2017-11-08T13:59:14.571Z,16.40
2017-11-08T14:01:43.058Z,16.40
2017-11-08T14:04:11.358Z,16.40
2017-11-08T14:06:39.630Z,16.40
2017-11-08T14:09:07.842Z,16.30
2017-11-08T14:11:36.801Z,16.30
2017-11-08T14:14:04.963Z,16.30
2017-11-08T14:16:34.397Z,16.30
2017-11-08T14:19:03.064Z,16.30
2017-11-08T14:21:31.361Z,16.30
2017-11-08T14:24:00.763Z,16.30
2017-11-08T14:26:28.915Z,16.20
2017-11-08T14:28:57.242Z,16.20
2017-11-08T14:31:25.244Z,16.30
2017-11-08T14:33:53.131Z,16.30
2017-11-08T14:36:21.069Z,16.30
2017-11-08T14:38:49.094Z,16.20
2017-11-08T14:41:17.645Z,16.20
2017-11-08T14:43:45.511Z,16.20
2017-11-08T14:46:14.201Z,16.20
2017-11-08T14:48:43.033Z,16.20
2017-11-08T14:51:11.857Z,16.10
2017-11-08T14:53:41.658Z,16.10
2017-11-08T14:56:09.586Z,16.00
2017-11-08T14:58:37.558Z,16.00
2017-11-08T15:01:05.437Z,15.90
2017-11-08T15:03:34.120Z,15.80
2017-11-08T15:06:02.818Z,15.80
2017-11-08T15:08:31.521Z,15.80
2017-11-08T15:10:59.567Z,15.80
2017-11-08T15:13:28.535Z,15.80
2017-11-08T15:15:56.404Z,15.80
2017-11-08T15:18:24.241Z,15.80
2017-11-08T15:20:52.736Z,15.70
2017-11-08T15:23:21.414Z,15.70
2017-11-08T15:25:49.258Z,15.70
2017-11-08T15:28:17.252Z,15.60
2017-11-08T15:30:46.177Z,15.50
2017-11-08T15:33:14.041Z,15.50
2017-11-08T15:35:42.011Z,15.40
2017-11-08T15:38:09.907Z,15.40
2017-11-08T15:40:37.776Z,15.40
2017-11-08T15:43:06.710Z,15.40
2017-11-08T15:45:35.130Z,15.40
2017-11-08T15:48:04.241Z,15.40
2017-11-08T15:50:32.887Z,15.40
2017-11-08T15:53:00.825Z,15.30
2017-11-08T15:55:28.841Z,15.30
2017-11-08T15:57:57.474Z,15.30
2017-11-08T16:00:25.423Z,15.30
2017-11-08T16:02:53.293Z,15.30
2017-11-08T16:05:21.191Z,15.30
2017-11-08T16:07:49.140Z,15.20
2017-11-08T16:10:17.127Z,15.20
2017-11-08T16:12:45.092Z,15.20
2017-11-08T16:15:13.224Z,15.20
2017-11-08T16:17:41.845Z,15.10
2017-11-08T16:20:15.184Z,15.10
2017-11-08T16:22:43.076Z,15.10
2017-11-08T16:25:11.724Z,15.00
2017-11-08T16:27:39.595Z,15.00
2017-11-08T16:30:07.544Z,14.90
2017-11-08T16:32:36.260Z,14.90
2017-11-08T16:35:04.321Z,14.90
2017-11-08T16:37:32.162Z,14.90
2017-11-08T16:40:00.116Z,14.80
2017-11-08T16:42:27.950Z,14.80
2017-11-08T16:44:57.474Z,14.80
2017-11-08T16:47:25.342Z,14.80
2017-11-08T16:49:53.201Z,14.70
2017-11-08T16:52:21.906Z,14.70
2017-11-08T16:54:49.747Z,14.70
2017-11-08T16:57:18.422Z,14.70
2017-11-08T16:59:47.068Z,14.70
2017-11-08T17:02:14.925Z,14.70
2017-11-08T17:04:42.809Z,14.60
2017-11-08T17:07:10.741Z,14.60
2017-11-08T17:09:38.710Z,14.60
2017-11-08T17:12:06.657Z,14.60
2017-11-08T17:14:35.361Z,14.50
2017-11-08T17:17:03.480Z,14.50
2017-11-08T17:19:31.500Z,14.50
2017-11-08T17:21:59.373Z,14.50
2017-11-08T17:24:27.352Z,14.40
2017-11-08T17:26:55.359Z,14.40
2017-11-08T17:29:23.359Z,14.40
2017-11-08T17:31:52.050Z,14.30
2017-11-08T17:34:20.699Z,14.30
2017-11-08T17:36:48.570Z,14.30
2017-11-08T17:39:16.469Z,14.30
2017-11-08T17:41:45.097Z,14.30
2017-11-08T17:44:12.953Z,14.30
2017-11-08T17:46:41.112Z,14.20
2017-11-08T17:49:08.954Z,14.30
2017-11-08T17:51:37.622Z,14.30
2017-11-08T17:54:05.491Z,14.20
2017-11-08T17:56:33.426Z,14.20
2017-11-08T17:59:03.296Z,14.20
2017-11-08T18:01:32.045Z,14.20
2017-11-08T18:03:59.900Z,14.20
2017-11-08T18:06:27.765Z,14.20
2017-11-08T18:08:59.032Z,14.20
2017-11-08T18:11:27.107Z,14.10
2017-11-08T18:13:54.962Z,14.10
2017-11-08T18:16:22.925Z,14.10
2017-11-08T18:18:50.911Z,14.10
2017-11-08T18:21:18.776Z,14.10
2017-11-08T18:23:47.035Z,14.10
2017-11-08T18:26:15.157Z,14.10
2017-11-08T18:28:43.778Z,14.10
2017-11-08T18:31:11.671Z,14.00
2017-11-08T18:33:39.542Z,14.10
2017-11-08T18:36:07.416Z,14.00
2017-11-08T18:38:35.280Z,14.00
2017-11-08T18:41:03.248Z,14.00
2017-11-08T18:43:31.109Z,14.00
2017-11-08T18:45:58.948Z,14.00
2017-11-08T18:48:27.068Z,14.00
2017-11-08T18:50:55.009Z,14.00
2017-11-08T18:53:23.159Z,14.00
2017-11-08T18:55:51.050Z,13.90
2017-11-08T18:58:18.986Z,13.90
2017-11-08T19:00:47.029Z,13.90
2017-11-08T19:03:15.688Z,13.90
2017-11-08T19:05:43.558Z,13.90
2017-11-08T19:08:11.437Z,13.90
2017-11-08T19:10:39.319Z,13.80
2017-11-08T19:13:08.028Z,13.80
2017-11-08T19:15:35.923Z,13.80
2017-11-08T19:18:03.881Z,13.70
2017-11-08T19:20:31.834Z,13.70
2017-11-08T19:23:00.236Z,13.70
2017-11-08T19:25:28.856Z,13.70
2017-11-08T19:27:56.799Z,13.70
2017-11-08T19:30:24.713Z,13.70
2017-11-08T19:32:53.387Z,13.60
2017-11-08T19:35:21.332Z,13.60
2017-11-08T19:37:49.216Z,13.60
2017-11-08T19:40:17.120Z,13.60
2017-11-08T19:42:45.068Z,13.60
2017-11-08T19:45:13.732Z,13.60
2017-11-08T19:47:41.585Z,13.50
2017-11-08T19:50:09.517Z,13.60
2017-11-08T19:52:37.482Z,13.50
2017-11-08T19:55:05.405Z,13.50
2017-11-08T19:57:33.305Z,13.60
2017-11-08T20:00:02.018Z,13.50
2017-11-08T20:02:29.896Z,13.50
2017-11-08T20:04:57.761Z,13.50
2017-11-08T20:07:25.690Z,13.50
2017-11-08T20:09:54.401Z,13.50
2017-11-08T20:12:22.365Z,13.50
2017-11-08T20:14:50.221Z,13.50
2017-11-08T20:17:19.801Z,13.50
2017-11-08T20:19:49.061Z,13.50
2017-11-08T20:22:17.860Z,13.50
2017-11-08T20:24:46.649Z,13.50
2017-11-08T20:27:15.450Z,13.50
2017-11-08T20:29:44.257Z,13.50
2017-11-08T20:32:12.403Z,13.50
2017-11-08T20:34:41.219Z,13.50
2017-11-08T20:37:09.397Z,13.50
2017-11-08T20:39:37.916Z,13.50
2017-11-08T20:42:06.680Z,13.50
2017-11-08T20:44:35.895Z,13.60
2017-11-08T20:47:04.338Z,13.50
2017-11-08T20:49:33.128Z,13.60
2017-11-08T20:52:01.899Z,13.60
2017-11-08T20:54:30.287Z,13.60
2017-11-08T20:56:59.601Z,13.60
2017-11-08T20:59:27.492Z,13.60
2017-11-08T21:01:56.532Z,13.60
2017-11-08T21:04:25.053Z,13.50
2017-11-08T21:06:53.924Z,13.50
2017-11-08T21:09:21.787Z,13.50
2017-11-08T21:11:50.134Z,13.50
2017-11-08T21:14:18.152Z,13.50
2017-11-08T21:16:46.009Z,13.50
2017-11-08T21:19:13.897Z,13.50
2017-11-08T21:21:42.568Z,13.50
2017-11-08T21:24:11.269Z,13.50
2017-11-08T21:26:39.545Z,13.50
2017-11-08T21:29:08.016Z,13.50
2017-11-08T21:31:36.788Z,13.50
2017-11-08T21:34:04.973Z,13.50
2017-11-08T21:36:34.020Z,13.50
2017-11-08T21:39:02.710Z,13.50
2017-11-08T21:41:31.496Z,13.40
2017-11-08T21:44:00.166Z,13.50
2017-11-08T21:46:29.102Z,13.40
2017-11-08T21:48:57.262Z,13.40
2017-11-08T21:51:25.509Z,13.40
2017-11-08T21:53:53.367Z,13.40
2017-11-08T21:56:22.876Z,13.40
2017-11-08T21:58:51.098Z,13.40
2017-11-08T22:01:18.981Z,13.40
2017-11-08T22:03:47.685Z,13.40
2017-11-08T22:06:18.052Z,13.30
2017-11-08T22:08:45.980Z,13.40
2017-11-08T22:11:15.249Z,13.40
2017-11-08T22:13:43.125Z,13.30
2017-11-08T22:16:11.014Z,13.30
2017-11-08T22:18:41.018Z,13.30
2017-11-08T22:21:09.289Z,13.30
2017-11-08T22:23:37.687Z,13.30
2017-11-08T22:26:06.457Z,13.30
2017-11-08T22:28:35.090Z,13.30
2017-11-08T22:31:03.053Z,13.30
2017-11-08T22:33:31.093Z,13.30
2017-11-08T22:35:58.960Z,13.30
2017-11-08T22:38:26.870Z,13.20
2017-11-08T22:40:54.821Z,13.20
2017-11-08T22:43:22.759Z,13.20
2017-11-08T22:45:50.674Z,13.10
2017-11-08T22:48:18.560Z,13.10
2017-11-08T22:50:46.447Z,13.10
2017-11-08T22:53:15.186Z,13.10
2017-11-08T22:55:43.780Z,13.10
2017-11-08T22:58:11.934Z,13.10
2017-11-08T23:00:40.627Z,13.10
2017-11-08T23:03:08.538Z,13.10
2017-11-08T23:05:36.500Z,13.10
2017-11-08T23:08:04.386Z,13.10
2017-11-08T23:10:32.275Z,13.10
2017-11-08T23:13:01.518Z,13.10
2017-11-08T23:15:29.934Z,13.10
2017-11-08T23:17:58.213Z,13.10
2017-11-08T23:20:26.901Z,13.10
2017-11-08T23:22:54.757Z,13.10
2017-11-08T23:25:22.602Z,13.10
2017-11-08T23:27:50.628Z,13.10
2017-11-08T23:30:19.492Z,13.10
2017-11-08T23:32:47.515Z,13.10
2017-11-08T23:35:16.404Z,13.10
2017-11-08T23:37:44.412Z,13.10
2017-11-08T23:40:13.039Z,13.10
2017-11-08T23:42:41.781Z,13.10
2017-11-08T23:45:09.691Z,13.00
2017-11-08T23:47:38.342Z,13.10
2017-11-08T23:50:06.235Z,13.10
2017-11-08T23:52:35.720Z,13.10
2017-11-08T23:55:04.453Z,13.10
2017-11-08T23:57:33.198Z,13.10
